sensor_id;sensor_type;location;lat;lon;timestamp;pressure;altitude;pressure_sealevel;temperature;humidity
45345;BME280;31078;48.304;11.896;2023-02-28T00:01:07;96776.22;;;-2.85;73.79
45345;BME280;31078;48.304;11.896;2023-02-28T00:03:33;96783.34;;;-2.79;74.12
45345;BME280;31078;48.304;11.896;2023-02-28T00:06:01;96773.41;;;-2.91;74.60
45345;BME280;31078;48.304;11.896;2023-02-28T00:08:27;96767.03;;;-2.90;74.41
45345;BME280;31078;48.304;11.896;2023-02-28T00:10:55;96767.31;;;-2.98;74.17
45345;BME280;31078;48.304;11.896;2023-02-28T00:13:22;96768.84;;;-3.02;74.83
45345;BME280;31078;48.304;11.896;2023-02-28T00:15:58;96766.84;;;-3.06;74.67
45345;BME280;31078;48.304;11.896;2023-02-28T00:18:25;96767.72;;;-3.12;74.75
45345;BME280;31078;48.304;11.896;2023-02-28T00:20:52;96765.25;;;-3.14;75.54
45345;BME280;31078;48.304;11.896;2023-02-28T00:23:18;96763.22;;;-3.12;76.03
45345;BME280;31078;48.304;11.896;2023-02-28T00:25:44;96760.69;;;-3.07;75.73
45345;BME280;31078;48.304;11.896;2023-02-28T00:28:12;96766.03;;;-3.07;75.32
45345;BME280;31078;48.304;11.896;2023-02-28T00:30:39;96760.69;;;-3.07;75.50
45345;BME280;31078;48.304;11.896;2023-02-28T00:33:05;96765.94;;;-3.00;75.00
45345;BME280;31078;48.304;11.896;2023-02-28T00:35:32;96765.63;;;-3.10;75.50
45345;BME280;31078;48.304;11.896;2023-02-28T00:37:58;96760.84;;;-3.02;75.43
45345;BME280;31078;48.304;11.896;2023-02-28T00:40:25;96759.41;;;-3.04;75.55
45345;BME280;31078;48.304;11.896;2023-02-28T00:42:51;96764.81;;;-3.11;76.19
45345;BME280;31078;48.304;11.896;2023-02-28T00:45:19;96761.94;;;-3.09;75.45
45345;BME280;31078;48.304;11.896;2023-02-28T00:47:45;96756.84;;;-3.11;75.66
45345;BME280;31078;48.304;11.896;2023-02-28T00:50:15;96757.88;;;-3.12;75.34
45345;BME280;31078;48.304;11.896;2023-02-28T00:52:42;96752.91;;;-3.08;76.14
45345;BME280;31078;48.304;11.896;2023-02-28T00:55:09;96760.59;;;-3.19;75.49
45345;BME280;31078;48.304;11.896;2023-02-28T00:57:35;96758.47;;;-3.28;76.32
45345;BME280;31078;48.304;11.896;2023-02-28T01:00:03;96751.13;;;-3.33;76.12
45345;BME280;31078;48.304;11.896;2023-02-28T01:02:32;96748.47;;;-3.15;76.47
45345;BME280;31078;48.304;11.896;2023-02-28T01:04:59;96751.47;;;-3.29;77.33
45345;BME280;31078;48.304;11.896;2023-02-28T01:07:25;96746.03;;;-3.16;77.37
45345;BME280;31078;48.304;11.896;2023-02-28T01:09:52;96739.97;;;-3.23;77.10
45345;BME280;31078;48.304;11.896;2023-02-28T01:12:18;96745.28;;;-3.23;77.47
45345;BME280;31078;48.304;11.896;2023-02-28T01:14:45;96736.84;;;-3.38;76.17
45345;BME280;31078;48.304;11.896;2023-02-28T01:17:11;96739.66;;;-3.33;76.44
45345;BME280;31078;48.304;11.896;2023-02-28T01:19:40;96735.00;;;-3.38;77.44
45345;BME280;31078;48.304;11.896;2023-02-28T01:22:06;96727.34;;;-3.34;76.86
45345;BME280;31078;48.304;11.896;2023-02-28T01:24:33;96726.94;;;-3.31;77.26
45345;BME280;31078;48.304;11.896;2023-02-28T01:26:59;96728.47;;;-3.24;76.34
45345;BME280;31078;48.304;11.896;2023-02-28T01:29:26;96727.09;;;-3.26;76.79
45345;BME280;31078;48.304;11.896;2023-02-28T01:31:52;96724.81;;;-3.23;76.62
45345;BME280;31078;48.304;11.896;2023-02-28T01:34:19;96726.81;;;-3.18;76.39
45345;BME280;31078;48.304;11.896;2023-02-28T01:36:47;96723.09;;;-3.17;76.25
45345;BME280;31078;48.304;11.896;2023-02-28T01:39:13;96724.00;;;-3.23;76.71
45345;BME280;31078;48.304;11.896;2023-02-28T01:41:40;96719.25;;;-3.21;76.47
45345;BME280;31078;48.304;11.896;2023-02-28T01:44:53;96723.59;;;-3.27;76.48
45345;BME280;31078;48.304;11.896;2023-02-28T01:46:55;96718.72;;;-3.30;76.93
45345;BME280;31078;48.304;11.896;2023-02-28T01:49:21;96728.47;;;-3.24;76.78
45345;BME280;31078;48.304;11.896;2023-02-28T01:51:49;96720.47;;;-3.24;77.20
45345;BME280;31078;48.304;11.896;2023-02-28T01:54:19;96711.69;;;-3.24;76.95
45345;BME280;31078;48.304;11.896;2023-02-28T01:56:49;96717.31;;;-3.32;77.91
45345;BME280;31078;48.304;11.896;2023-02-28T01:59:22;96716.94;;;-3.36;78.02
45345;BME280;31078;48.304;11.896;2023-02-28T02:01:52;96711.84;;;-3.37;77.32
45345;BME280;31078;48.304;11.896;2023-02-28T02:04:21;96715.53;;;-3.38;78.58
45345;BME280;31078;48.304;11.896;2023-02-28T02:06:49;96710.97;;;-3.31;78.30
45345;BME280;31078;48.304;11.896;2023-02-28T02:09:16;96712.56;;;-3.30;77.80
45345;BME280;31078;48.304;11.896;2023-02-28T02:11:43;96711.34;;;-3.28;78.48
45345;BME280;31078;48.304;11.896;2023-02-28T02:14:32;96712.81;;;-3.32;78.48
45345;BME280;31078;48.304;11.896;2023-02-28T02:17:24;96712.16;;;-3.27;78.75
45345;BME280;31078;48.304;11.896;2023-02-28T02:20:30;96714.19;;;-3.29;78.23
45345;BME280;31078;48.304;11.896;2023-02-28T02:26:06;96704.44;;;-3.17;78.62
45345;BME280;31078;48.304;11.896;2023-02-28T02:28:56;96706.06;;;-3.16;78.37
45345;BME280;31078;48.304;11.896;2023-02-28T02:31:52;96700.47;;;-3.08;78.65
45345;BME280;31078;48.304;11.896;2023-02-28T02:34:39;96700.47;;;-3.08;77.90
45345;BME280;31078;48.304;11.896;2023-02-28T02:37:25;96700.50;;;-3.15;78.06
45345;BME280;31078;48.304;11.896;2023-02-28T02:39:59;96707.69;;;-3.15;78.07
45345;BME280;31078;48.304;11.896;2023-02-28T02:42:35;96705.03;;;-3.15;78.64
45345;BME280;31078;48.304;11.896;2023-02-28T02:45:06;96710.66;;;-3.05;78.25
45345;BME280;31078;48.304;11.896;2023-02-28T02:47:35;96703.13;;;-3.08;78.38
45345;BME280;31078;48.304;11.896;2023-02-28T02:50:08;96704.88;;;-3.20;79.16
45345;BME280;31078;48.304;11.896;2023-02-28T02:52:40;96706.44;;;-3.31;79.49
45345;BME280;31078;48.304;11.896;2023-02-28T02:55:11;96710.06;;;-3.25;79.69
45345;BME280;31078;48.304;11.896;2023-02-28T02:57:43;96709.19;;;-3.37;79.51
45345;BME280;31078;48.304;11.896;2023-02-28T03:00:12;96710.97;;;-3.31;79.86
45345;BME280;31078;48.304;11.896;2023-02-28T03:02:41;96714.34;;;-3.24;79.84
45345;BME280;31078;48.304;11.896;2023-02-28T03:05:15;96711.25;;;-3.21;79.56
45345;BME280;31078;48.304;11.896;2023-02-28T03:07:44;96709.94;;;-3.12;79.97
45345;BME280;31078;48.304;11.896;2023-02-28T03:10:30;96708.00;;;-3.23;79.78
45345;BME280;31078;48.304;11.896;2023-02-28T03:13:07;96712.88;;;-3.20;79.85
45345;BME280;31078;48.304;11.896;2023-02-28T03:15:47;96711.56;;;-3.11;79.82
45345;BME280;31078;48.304;11.896;2023-02-28T03:18:22;96707.09;;;-2.99;80.87
45345;BME280;31078;48.304;11.896;2023-02-28T03:20:57;96705.03;;;-2.97;79.93
45345;BME280;31078;48.304;11.896;2023-02-28T03:23:34;96706.19;;;-2.93;79.64
45345;BME280;31078;48.304;11.896;2023-02-28T03:26:06;96706.81;;;-2.91;79.95
45345;BME280;31078;48.304;11.896;2023-02-28T03:28:40;96708.19;;;-2.88;78.88
45345;BME280;31078;48.304;11.896;2023-02-28T03:31:15;96706.88;;;-2.97;79.51
45345;BME280;31078;48.304;11.896;2023-02-28T03:33:47;96699.84;;;-2.92;79.19
45345;BME280;31078;48.304;11.896;2023-02-28T03:36:23;96699.66;;;-2.78;79.40
45345;BME280;31078;48.304;11.896;2023-02-28T03:38:53;96706.56;;;-2.71;78.55
45345;BME280;31078;48.304;11.896;2023-02-28T03:41:23;96695.78;;;-2.64;78.70
45345;BME280;31078;48.304;11.896;2023-02-28T03:43:54;96702.03;;;-2.70;79.66
45345;BME280;31078;48.304;11.896;2023-02-28T03:46:25;96704.56;;;-2.75;79.25
45345;BME280;31078;48.304;11.896;2023-02-28T03:48:55;96706.84;;;-2.60;79.71
45345;BME280;31078;48.304;11.896;2023-02-28T03:51:25;96711.56;;;-2.63;79.56
45345;BME280;31078;48.304;11.896;2023-02-28T03:53:54;96710.16;;;-2.65;79.29
45345;BME280;31078;48.304;11.896;2023-02-28T03:56:27;96715.78;;;-2.55;79.75
45345;BME280;31078;48.304;11.896;2023-02-28T03:59:01;96718.91;;;-2.46;78.92
45345;BME280;31078;48.304;11.896;2023-02-28T04:01:32;96715.56;;;-2.42;79.48
45345;BME280;31078;48.304;11.896;2023-02-28T04:04:00;96721.66;;;-2.34;78.88
45345;BME280;31078;48.304;11.896;2023-02-28T04:06:30;96719.34;;;-2.61;77.61
45345;BME280;31078;48.304;11.896;2023-02-28T04:08:58;96724.53;;;-2.66;78.48
45345;BME280;31078;48.304;11.896;2023-02-28T04:11:29;96722.34;;;-2.57;78.31
45345;BME280;31078;48.304;11.896;2023-02-28T04:13:57;96723.56;;;-2.42;78.58
45345;BME280;31078;48.304;11.896;2023-02-28T04:16:23;96729.97;;;-2.43;78.14
45345;BME280;31078;48.304;11.896;2023-02-28T04:18:50;96725.53;;;-2.49;77.40
45345;BME280;31078;48.304;11.896;2023-02-28T04:21:16;96733.06;;;-2.46;77.04
45345;BME280;31078;48.304;11.896;2023-02-28T04:23:47;96731.44;;;-2.47;77.19
45345;BME280;31078;48.304;11.896;2023-02-28T04:26:13;96738.63;;;-2.47;77.61
45345;BME280;31078;48.304;11.896;2023-02-28T04:28:40;96739.16;;;-2.57;76.73
45345;BME280;31078;48.304;11.896;2023-02-28T04:31:06;96742.75;;;-2.33;78.04
45345;BME280;31078;48.304;11.896;2023-02-28T04:33:33;96738.88;;;-2.49;77.16
45345;BME280;31078;48.304;11.896;2023-02-28T04:36:00;96742.44;;;-2.55;77.68
45345;BME280;31078;48.304;11.896;2023-02-28T04:38:27;96739.44;;;-2.47;77.16
45345;BME280;31078;48.304;11.896;2023-02-28T04:40:58;96745.69;;;-2.53;77.24
45345;BME280;31078;48.304;11.896;2023-02-28T04:43:25;96738.88;;;-2.49;77.94
45345;BME280;31078;48.304;11.896;2023-02-28T04:45:52;96737.09;;;-2.55;77.46
45345;BME280;31078;48.304;11.896;2023-02-28T04:48:22;96741.25;;;-2.59;77.34
45345;BME280;31078;48.304;11.896;2023-02-28T04:50:48;96740.78;;;-2.56;77.77
45345;BME280;31078;48.304;11.896;2023-02-28T04:53:14;96742.31;;;-2.60;77.99
45345;BME280;31078;48.304;11.896;2023-02-28T04:55:41;96750.81;;;-2.70;78.74
45345;BME280;31078;48.304;11.896;2023-02-28T04:58:09;96739.56;;;-2.72;78.09
45345;BME280;31078;48.304;11.896;2023-02-28T05:00:35;96747.94;;;-2.68;78.04
45345;BME280;31078;48.304;11.896;2023-02-28T05:03:02;96742.53;;;-2.80;77.73
45345;BME280;31078;48.304;11.896;2023-02-28T05:05:28;96747.81;;;-2.92;77.66
45345;BME280;31078;48.304;11.896;2023-02-28T05:07:55;96749.44;;;-2.91;77.99
45345;BME280;31078;48.304;11.896;2023-02-28T05:10:22;96756.38;;;-2.90;77.83
45345;BME280;31078;48.304;11.896;2023-02-28T05:12:49;96752.09;;;-2.91;78.07
45345;BME280;31078;48.304;11.896;2023-02-28T05:15:18;96758.81;;;-2.88;78.22
45345;BME280;31078;48.304;11.896;2023-02-28T05:17:44;96764.09;;;-3.00;77.85
45345;BME280;31078;48.304;11.896;2023-02-28T05:20:11;96760.09;;;-2.91;78.50
45345;BME280;31078;48.304;11.896;2023-02-28T05:22:38;96755.06;;;-2.99;78.50
45345;BME280;31078;48.304;11.896;2023-02-28T05:25:06;96768.97;;;-2.97;78.16
45345;BME280;31078;48.304;11.896;2023-02-28T05:27:33;96767.94;;;-2.96;78.17
45345;BME280;31078;48.304;11.896;2023-02-28T05:29:59;96774.00;;;-2.89;78.00
45345;BME280;31078;48.304;11.896;2023-02-28T05:32:30;96773.41;;;-2.91;78.26
45345;BME280;31078;48.304;11.896;2023-02-28T05:34:56;96770.47;;;-3.01;78.28
45345;BME280;31078;48.304;11.896;2023-02-28T05:37:22;96778.91;;;-2.85;78.96
45345;BME280;31078;48.304;11.896;2023-02-28T05:39:49;96774.00;;;-2.89;78.83
45345;BME280;31078;48.304;11.896;2023-02-28T05:42:15;96780.91;;;-2.81;78.45
45345;BME280;31078;48.304;11.896;2023-02-28T05:44:42;96772.50;;;-3.03;78.25
45345;BME280;31078;48.304;11.896;2023-02-28T05:47:08;96778.91;;;-2.85;78.21
45345;BME280;31078;48.304;11.896;2023-02-28T05:49:36;96775.56;;;-2.81;79.06
45345;BME280;31078;48.304;11.896;2023-02-28T05:52:03;96777.63;;;-2.83;78.66
45345;BME280;31078;48.304;11.896;2023-02-28T05:54:30;96776.66;;;-2.89;78.17
45345;BME280;31078;48.304;11.896;2023-02-28T05:56:56;96784.66;;;-2.89;78.24
45345;BME280;31078;48.304;11.896;2023-02-28T05:59:23;96776.75;;;-2.95;77.89
45345;BME280;31078;48.304;11.896;2023-02-28T06:01:50;96776.00;;;-2.84;78.42
45345;BME280;31078;48.304;11.896;2023-02-28T06:04:19;96783.03;;;-2.90;78.86
45345;BME280;31078;48.304;11.896;2023-02-28T06:06:48;96779.72;;;-2.85;79.09
45345;BME280;31078;48.304;11.896;2023-02-28T06:09:15;96782.88;;;-2.95;78.82
45345;BME280;31078;48.304;11.896;2023-02-28T06:11:42;96779.84;;;-2.98;78.50
45345;BME280;31078;48.304;11.896;2023-02-28T06:14:14;96778.22;;;-2.99;78.29
45345;BME280;31078;48.304;11.896;2023-02-28T06:16:41;96780.31;;;-3.01;78.30
45345;BME280;31078;48.304;11.896;2023-02-28T06:19:09;96788.06;;;-3.00;78.23
45345;BME280;31078;48.304;11.896;2023-02-28T06:21:36;96796.38;;;-2.90;78.71
45345;BME280;31078;48.304;11.896;2023-02-28T06:24:04;96799.09;;;-2.96;78.40
45345;BME280;31078;48.304;11.896;2023-02-28T06:26:31;96803.16;;;-2.94;78.88
45345;BME280;31078;48.304;11.896;2023-02-28T06:28:58;96802.28;;;-2.88;79.30
45345;BME280;31078;48.304;11.896;2023-02-28T06:31:25;96807.09;;;-2.78;80.00
45345;BME280;31078;48.304;11.896;2023-02-28T06:33:54;96805.84;;;-2.75;79.90
45345;BME280;31078;48.304;11.896;2023-02-28T06:36:21;96805.09;;;-2.64;79.37
45345;BME280;31078;48.304;11.896;2023-02-28T06:38:48;96810.88;;;-2.67;79.07
45345;BME280;31078;48.304;11.896;2023-02-28T06:41:21;96810.72;;;-2.72;78.17
45345;BME280;31078;48.304;11.896;2023-02-28T06:43:48;96808.38;;;-2.80;77.82
45345;BME280;31078;48.304;11.896;2023-02-28T06:46:14;96812.88;;;-2.81;78.14
45345;BME280;31078;48.304;11.896;2023-02-28T06:48:41;96810.72;;;-2.72;77.89
45345;BME280;31078;48.304;11.896;2023-02-28T06:51:10;96815.47;;;-2.74;77.75
45345;BME280;31078;48.304;11.896;2023-02-28T06:53:38;96816.00;;;-2.66;77.73
45345;BME280;31078;48.304;11.896;2023-02-28T06:56:05;96817.53;;;-2.58;78.12
45345;BME280;31078;48.304;11.896;2023-02-28T06:58:34;96822.28;;;-2.60;77.31
45345;BME280;31078;48.304;11.896;2023-02-28T07:01:01;96822.09;;;-2.47;77.18
45345;BME280;31078;48.304;11.896;2023-02-28T07:03:28;96821.06;;;-2.46;76.21
45345;BME280;31078;48.304;11.896;2023-02-28T07:05:54;96827.44;;;-2.47;76.66
45345;BME280;31078;48.304;11.896;2023-02-28T07:08:22;96828.88;;;-2.44;76.87
45345;BME280;31078;48.304;11.896;2023-02-28T07:10:52;96835.72;;;-2.37;76.25
45345;BME280;31078;48.304;11.896;2023-02-28T07:13:18;96827.88;;;-2.31;75.24
45345;BME280;31078;48.304;11.896;2023-02-28T07:15:54;96829.06;;;-2.27;74.91
45345;BME280;31078;48.304;11.896;2023-02-28T07:18:20;96830.41;;;-2.37;74.83
45345;BME280;31078;48.304;11.896;2023-02-28T07:20:47;96834.31;;;-2.21;74.69
45345;BME280;31078;48.304;11.896;2023-02-28T07:23:13;96836.28;;;-2.16;74.72
45345;BME280;31078;48.304;11.896;2023-02-28T07:25:40;96831.69;;;-2.09;73.44
45345;BME280;31078;48.304;11.896;2023-02-28T07:28:06;96823.94;;;-1.99;72.52
45345;BME280;31078;48.304;11.896;2023-02-28T07:30:33;96830.50;;;-1.83;71.26
45345;BME280;31078;48.304;11.896;2023-02-28T07:33:01;96829.25;;;-1.80;71.91
45345;BME280;31078;48.304;11.896;2023-02-28T07:35:28;96834.56;;;-1.80;71.79
45345;BME280;31078;48.304;11.896;2023-02-28T07:37:56;96831.75;;;-1.55;71.00
45345;BME280;31078;48.304;11.896;2023-02-28T07:40:23;96827.09;;;-1.48;70.43
45345;BME280;31078;48.304;11.896;2023-02-28T07:42:49;96832.00;;;-1.45;70.57
45345;BME280;31078;48.304;11.896;2023-02-28T07:45:16;96830.59;;;-1.48;70.82
45345;BME280;31078;48.304;11.896;2023-02-28T07:47:43;96835.38;;;-1.26;69.70
45345;BME280;31078;48.304;11.896;2023-02-28T07:50:14;96831.44;;;-1.00;68.80
45345;BME280;31078;48.304;11.896;2023-02-28T07:52:41;96841.66;;;-0.86;67.68
45345;BME280;31078;48.304;11.896;2023-02-28T07:55:09;96842.91;;;-0.65;67.06
45345;BME280;31078;48.304;11.896;2023-02-28T07:57:36;96840.47;;;-0.55;65.93
45345;BME280;31078;48.304;11.896;2023-02-28T08:00:03;96835.00;;;-0.60;65.56
45345;BME280;31078;48.304;11.896;2023-02-28T08:02:30;96839.88;;;-0.45;65.91
45345;BME280;31078;48.304;11.896;2023-02-28T08:04:56;96834.72;;;-0.35;64.87
45345;BME280;31078;48.304;11.896;2023-02-28T08:07:24;96831.97;;;-0.11;64.65
45345;BME280;31078;48.304;11.896;2023-02-28T08:09:51;96833.50;;;0.13;62.88
45345;BME280;31078;48.304;11.896;2023-02-28T08:12:17;96836.25;;;0.02;63.40
45345;BME280;31078;48.304;11.896;2023-02-28T08:14:44;96844.22;;;0.13;62.80
45345;BME280;31078;48.304;11.896;2023-02-28T08:17:11;96845.47;;;0.22;62.45
45345;BME280;31078;48.304;11.896;2023-02-28T08:19:37;96849.00;;;0.40;61.56
45345;BME280;31078;48.304;11.896;2023-02-28T08:22:04;96851.13;;;0.55;61.08
45345;BME280;31078;48.304;11.896;2023-02-28T08:24:32;96845.28;;;1.08;60.41
45345;BME280;31078;48.304;11.896;2023-02-28T08:26:59;96850.75;;;1.96;58.91
45345;BME280;31078;48.304;11.896;2023-02-28T08:29:25;96848.25;;;2.11;55.25
45345;BME280;31078;48.304;11.896;2023-02-28T08:31:52;96848.84;;;2.18;55.73
45345;BME280;31078;48.304;11.896;2023-02-28T08:34:18;96856.59;;;1.93;55.60
45345;BME280;31078;48.304;11.896;2023-02-28T08:36:44;96852.28;;;1.48;56.39
45345;BME280;31078;48.304;11.896;2023-02-28T08:39:12;96853.38;;;1.47;57.97
45345;BME280;31078;48.304;11.896;2023-02-28T08:41:41;96854.28;;;3.09;54.71
45345;BME280;31078;48.304;11.896;2023-02-28T08:44:09;96851.38;;;3.63;52.45
45345;BME280;31078;48.304;11.896;2023-02-28T08:46:35;96843.72;;;3.98;50.45
45345;BME280;31078;48.304;11.896;2023-02-28T08:49:02;96857.25;;;4.08;51.08
45345;BME280;31078;48.304;11.896;2023-02-28T08:51:29;96850.16;;;3.86;49.54
45345;BME280;31078;48.304;11.896;2023-02-28T08:53:58;96857.75;;;3.47;50.79
45345;BME280;31078;48.304;11.896;2023-02-28T08:56:26;96851.00;;;3.07;51.23
45345;BME280;31078;48.304;11.896;2023-02-28T08:58:55;96848.69;;;3.21;51.65
45345;BME280;31078;48.304;11.896;2023-02-28T09:01:24;96857.59;;;2.90;52.26
45345;BME280;31078;48.304;11.896;2023-02-28T09:03:52;96862.50;;;2.39;53.01
45345;BME280;31078;48.304;11.896;2023-02-28T09:06:21;96874.63;;;2.68;53.28
45345;BME280;31078;48.304;11.896;2023-02-28T09:08:47;96871.44;;;2.44;52.70
45345;BME280;31078;48.304;11.896;2023-02-28T09:11:14;96867.81;;;2.60;54.00
45345;BME280;31078;48.304;11.896;2023-02-28T09:13:41;96872.81;;;2.47;54.39
45345;BME280;31078;48.304;11.896;2023-02-28T09:16:11;96869.47;;;2.61;54.82
45345;BME280;31078;48.304;11.896;2023-02-28T09:18:38;96882.50;;;1.99;54.41
45345;BME280;31078;48.304;11.896;2023-02-28T09:21:05;96875.22;;;1.77;57.23
45345;BME280;31078;48.304;11.896;2023-02-28T09:23:32;96874.31;;;1.89;57.63
45345;BME280;31078;48.304;11.896;2023-02-28T09:25:58;96875.28;;;1.82;56.47
45345;BME280;31078;48.304;11.896;2023-02-28T09:28:25;96873.81;;;2.41;55.56
45345;BME280;31078;48.304;11.896;2023-02-28T09:30:53;96872.09;;;3.63;53.22
45345;BME280;31078;48.304;11.896;2023-02-28T09:33:22;96875.72;;;3.84;50.26
45345;BME280;31078;48.304;11.896;2023-02-28T09:35:50;96870.63;;;3.87;51.19
45345;BME280;31078;48.304;11.896;2023-02-28T09:38:17;96878.94;;;3.86;50.98
45345;BME280;31078;48.304;11.896;2023-02-28T09:40:47;96882.41;;;4.39;50.82
45345;BME280;31078;48.304;11.896;2023-02-28T09:43:16;96887.25;;;4.42;49.32
45345;BME280;31078;48.304;11.896;2023-02-28T09:45:48;96883.25;;;4.50;48.74
45345;BME280;31078;48.304;11.896;2023-02-28T09:48:18;96889.13;;;4.31;50.08
45345;BME280;31078;48.304;11.896;2023-02-28T09:50:50;96895.78;;;3.56;51.05
45345;BME280;31078;48.304;11.896;2023-02-28T09:53:21;96895.88;;;3.71;51.64
45345;BME280;31078;48.304;11.896;2023-02-28T09:55:50;96903.22;;;4.59;50.54
45345;BME280;31078;48.304;11.896;2023-02-28T09:58:23;96901.41;;;5.05;48.19
45345;BME280;31078;48.304;11.896;2023-02-28T10:00:57;96904.38;;;5.19;47.86
45345;BME280;31078;48.304;11.896;2023-02-28T10:03:30;96908.69;;;5.50;46.97
45345;BME280;31078;48.304;11.896;2023-02-28T10:06:04;96907.81;;;6.01;45.37
45345;BME280;31078;48.304;11.896;2023-02-28T10:08:36;96900.25;;;6.03;45.51
45345;BME280;31078;48.304;11.896;2023-02-28T10:11:10;96908.69;;;5.35;46.22
45345;BME280;31078;48.304;11.896;2023-02-28T10:13:46;96915.66;;;4.65;47.94
45345;BME280;31078;48.304;11.896;2023-02-28T10:16:20;96915.47;;;5.17;47.62
45345;BME280;31078;48.304;11.896;2023-02-28T10:18:50;96910.88;;;5.33;46.94
45345;BME280;31078;48.304;11.896;2023-02-28T10:21:21;96907.59;;;4.95;47.03
45345;BME280;31078;48.304;11.896;2023-02-28T10:23:53;96916.25;;;5.08;47.83
45345;BME280;31078;48.304;11.896;2023-02-28T10:26:22;96914.09;;;5.00;47.85
45345;BME280;31078;48.304;11.896;2023-02-28T10:28:52;96908.41;;;5.01;47.72
45345;BME280;31078;48.304;11.896;2023-02-28T10:31:19;96909.19;;;4.71;47.80
45345;BME280;31078;48.304;11.896;2023-02-28T10:33:47;96915.34;;;4.46;50.61
45345;BME280;31078;48.304;11.896;2023-02-28T10:36:15;96917.47;;;4.34;49.97
45345;BME280;31078;48.304;11.896;2023-02-28T10:38:45;96918.50;;;3.75;49.96
45345;BME280;31078;48.304;11.896;2023-02-28T10:41:14;96919.59;;;3.37;50.71
45345;BME280;31078;48.304;11.896;2023-02-28T10:43:42;96912.69;;;3.14;50.84
45345;BME280;31078;48.304;11.896;2023-02-28T10:46:13;96907.34;;;3.19;52.52
45345;BME280;31078;48.304;11.896;2023-02-28T10:49:01;96909.06;;;3.30;53.16
45345;BME280;31078;48.304;11.896;2023-02-28T10:51:34;96918.28;;;3.39;53.47
45345;BME280;31078;48.304;11.896;2023-02-28T10:54:03;96912.75;;;3.56;51.52
45345;BME280;31078;48.304;11.896;2023-02-28T10:56:31;96916.22;;;3.52;53.28
45345;BME280;31078;48.304;11.896;2023-02-28T10:59:00;96929.25;;;3.70;52.53
45345;BME280;31078;48.304;11.896;2023-02-28T11:01:36;96909.97;;;3.88;53.13
45345;BME280;31078;48.304;11.896;2023-02-28T11:04:03;96913.84;;;4.08;51.99
45345;BME280;31078;48.304;11.896;2023-02-28T11:06:42;96913.44;;;4.41;52.44
45345;BME280;31078;48.304;11.896;2023-02-28T11:09:18;96914.00;;;4.59;50.33
45345;BME280;31078;48.304;11.896;2023-02-28T11:11:49;96912.25;;;4.22;50.49
45345;BME280;31078;48.304;11.896;2023-02-28T11:14:20;96910.03;;;3.99;51.02
45345;BME280;31078;48.304;11.896;2023-02-28T11:16:47;96911.72;;;4.15;51.10
45345;BME280;31078;48.304;11.896;2023-02-28T11:19:19;96919.28;;;4.18;51.23
45345;BME280;31078;48.304;11.896;2023-02-28T11:21:52;96918.25;;;4.34;51.45
45345;BME280;31078;48.304;11.896;2023-02-28T11:24:24;96913.34;;;4.21;51.21
45345;BME280;31078;48.304;11.896;2023-02-28T11:26:52;96909.94;;;4.46;50.29
45345;BME280;31078;48.304;11.896;2023-02-28T11:29:20;96909.94;;;4.46;49.14
45345;BME280;31078;48.304;11.896;2023-02-28T11:32:07;96901.34;;;4.54;50.95
45345;BME280;31078;48.304;11.896;2023-02-28T11:34:37;96901.06;;;4.51;49.83
45345;BME280;31078;48.304;11.896;2023-02-28T11:37:05;96899.47;;;4.55;50.53
45345;BME280;31078;48.304;11.896;2023-02-28T11:39:38;96900.72;;;4.37;50.29
45345;BME280;31078;48.304;11.896;2023-02-28T11:42:15;96897.81;;;4.59;50.99
45345;BME280;31078;48.304;11.896;2023-02-28T11:44:56;96897.00;;;4.58;50.18
45345;BME280;31078;48.304;11.896;2023-02-28T11:47:32;96898.44;;;4.86;50.25
45345;BME280;31078;48.304;11.896;2023-02-28T11:50:21;96887.88;;;4.90;50.70
45345;BME280;31078;48.304;11.896;2023-02-28T11:52:53;96890.88;;;4.98;50.09
45345;BME280;31078;48.304;11.896;2023-02-28T11:55:24;96889.81;;;5.25;49.61
45345;BME280;31078;48.304;11.896;2023-02-28T12:01:11;96885.47;;;4.98;49.35
45345;BME280;31078;48.304;11.896;2023-02-28T12:03:45;96878.47;;;5.28;48.77
45345;BME280;31078;48.304;11.896;2023-02-28T12:06:21;96877.63;;;5.48;50.80
45345;BME280;31078;48.304;11.896;2023-02-28T12:09:00;96884.41;;;5.35;48.50
45345;BME280;31078;48.304;11.896;2023-02-28T12:11:40;96883.31;;;5.31;49.29
45345;BME280;31078;48.304;11.896;2023-02-28T12:14:36;96877.38;;;5.44;47.54
45345;BME280;31078;48.304;11.896;2023-02-28T12:17:20;96870.38;;;5.38;48.15
45345;BME280;31078;48.304;11.896;2023-02-28T12:19:54;96867.84;;;5.93;49.54
45345;BME280;31078;48.304;11.896;2023-02-28T12:22:29;96879.38;;;6.19;48.39
45345;BME280;31078;48.304;11.896;2023-02-28T12:25:21;96877.91;;;6.37;46.34
45345;BME280;31078;48.304;11.896;2023-02-28T12:27:51;96881.13;;;6.49;48.34
45345;BME280;31078;48.304;11.896;2023-02-28T12:30:22;96882.25;;;6.87;45.16
45345;BME280;31078;48.304;11.896;2023-02-28T12:32:53;96873.56;;;7.82;45.15
45345;BME280;31078;48.304;11.896;2023-02-28T12:35:25;96880.88;;;7.58;46.12
45345;BME280;31078;48.304;11.896;2023-02-28T12:37:57;96868.59;;;7.37;43.49
45345;BME280;31078;48.304;11.896;2023-02-28T12:40:28;96878.28;;;7.09;44.05
45345;BME280;31078;48.304;11.896;2023-02-28T12:43:04;96870.91;;;6.85;44.07
45345;BME280;31078;48.304;11.896;2023-02-28T12:45:39;96861.81;;;6.66;44.96
45345;BME280;31078;48.304;11.896;2023-02-28T12:48:09;96857.09;;;7.21;43.59
45345;BME280;31078;48.304;11.896;2023-02-28T12:50:39;96858.16;;;6.86;44.88
45345;BME280;31078;48.304;11.896;2023-02-28T12:53:08;96851.59;;;7.31;44.97
45345;BME280;31078;48.304;11.896;2023-02-28T12:55:42;96857.78;;;7.61;45.16
45345;BME280;31078;48.304;11.896;2023-02-28T12:58:15;96853.38;;;7.41;44.93
45345;BME280;31078;48.304;11.896;2023-02-28T13:00:55;96862.16;;;7.56;43.41
45345;BME280;31078;48.304;11.896;2023-02-28T13:03:41;96853.63;;;7.44;43.70
45345;BME280;31078;48.304;11.896;2023-02-28T13:06:22;96852.63;;;7.88;44.88
45345;BME280;31078;48.304;11.896;2023-02-28T13:09:05;96844.94;;;8.81;41.91
45345;BME280;31078;48.304;11.896;2023-02-28T13:11:39;96852.56;;;9.63;42.21
45345;BME280;31078;48.304;11.896;2023-02-28T13:14:19;96854.03;;;9.09;40.28